createdAt,value
2018-12-17T00:00:47.356Z,21.41
2018-12-17T00:05:50.969Z,21.45
2018-12-17T00:10:54.425Z,21.46
2018-12-17T00:15:58.101Z,21.44
2018-12-17T00:21:01.481Z,21.43
2018-12-17T00:26:05.035Z,21.45
2018-12-17T00:31:08.519Z,21.44
2018-12-17T00:36:11.921Z,21.45
2018-12-17T00:41:15.332Z,21.43
2018-12-17T00:46:18.800Z,21.45
2018-12-17T00:51:22.338Z,21.46
2018-12-17T00:56:26.340Z,21.46
2018-12-17T01:01:29.713Z,21.45
2018-12-17T01:06:33.075Z,21.43
2018-12-17T01:11:36.492Z,21.42
2018-12-17T01:16:39.834Z,21.39
2018-12-17T01:21:43.674Z,21.35
2018-12-17T01:26:47.026Z,21.38
2018-12-17T01:31:50.420Z,21.36
2018-12-17T01:36:53.833Z,21.27
2018-12-17T01:41:57.227Z,21.30
2018-12-17T01:47:03.206Z,21.31
2018-12-17T01:52:06.550Z,21.32
2018-12-17T01:57:09.897Z,21.33
2018-12-17T02:02:13.438Z,21.30
2018-12-17T02:07:16.808Z,21.20
2018-12-17T02:12:20.193Z,21.11
2018-12-17T02:17:23.547Z,21.02
2018-12-17T02:22:27.028Z,20.90
2018-12-17T02:27:30.397Z,20.83
2018-12-17T02:32:33.747Z,20.76
2018-12-17T02:37:37.090Z,20.70
2018-12-17T02:42:40.591Z,20.68
2018-12-17T02:47:44.105Z,20.69
2018-12-17T02:52:47.522Z,20.71
2018-12-17T02:57:51.043Z,20.75
2018-12-17T03:02:54.454Z,20.79
2018-12-17T03:07:57.874Z,20.76
2018-12-17T03:13:01.237Z,20.73
2018-12-17T03:18:04.817Z,20.68
2018-12-17T03:23:08.167Z,20.63
2018-12-17T03:28:11.588Z,20.56
2018-12-17T03:33:14.991Z,20.51
2018-12-17T03:38:18.437Z,20.49
2018-12-17T03:43:21.831Z,20.45
2018-12-17T03:48:25.351Z,20.45
2018-12-17T03:53:28.690Z,20.47
2018-12-17T03:58:32.082Z,20.54
2018-12-17T04:03:35.502Z,20.62
2018-12-17T04:08:38.843Z,20.63
2018-12-17T04:13:42.207Z,20.60
2018-12-17T04:18:45.722Z,20.56
2018-12-17T04:23:49.120Z,20.51
2018-12-17T04:28:52.463Z,20.46
2018-12-17T04:33:56.016Z,20.41
2018-12-17T04:38:59.458Z,20.45
2018-12-17T04:44:03.147Z,20.32
2018-12-17T04:49:06.496Z,20.22
2018-12-17T04:54:10.078Z,20.19
2018-12-17T04:59:14.717Z,20.16
2018-12-17T05:04:18.603Z,20.21
2018-12-17T05:09:22.255Z,20.31
2018-12-17T05:14:25.698Z,20.39
2018-12-17T05:19:29.271Z,20.48
2018-12-17T05:24:33.042Z,20.46
2018-12-17T05:29:36.545Z,20.40
2018-12-17T05:34:39.966Z,20.34
2018-12-17T05:39:43.546Z,20.27
2018-12-17T05:44:46.995Z,20.21
2018-12-17T05:49:50.499Z,20.15
2018-12-17T05:54:54.159Z,20.11
2018-12-17T05:59:57.592Z,20.06
2018-12-17T06:05:01.028Z,20.10
2018-12-17T06:10:04.784Z,20.15
2018-12-17T06:15:08.448Z,20.25
2018-12-17T06:20:11.948Z,20.34
2018-12-17T06:25:15.368Z,20.36
2018-12-17T06:30:18.894Z,20.34
2018-12-17T06:35:22.399Z,20.30
2018-12-17T06:40:25.863Z,20.24
2018-12-17T06:45:29.359Z,20.19
2018-12-17T06:50:32.805Z,20.15
2018-12-17T06:55:36.174Z,20.10
2018-12-17T07:00:39.551Z,20.06
2018-12-17T07:05:43.048Z,20.11
2018-12-17T07:10:47.350Z,20.17
2018-12-17T07:15:50.823Z,20.27
2018-12-17T07:21:00.741Z,20.34
2018-12-17T07:26:04.256Z,20.32
2018-12-17T07:31:07.631Z,20.29
2018-12-17T07:36:11.084Z,20.22
2018-12-17T07:41:14.581Z,20.17
2018-12-17T07:46:18.055Z,20.11
2018-12-17T07:51:21.580Z,20.05
2018-12-17T07:56:24.926Z,20.00
2018-12-17T08:01:28.322Z,19.98
2018-12-17T08:06:31.700Z,20.03
2018-12-17T08:11:35.245Z,20.12
2018-12-17T08:16:38.727Z,20.24
2018-12-17T08:21:42.061Z,16.22
2018-12-17T08:26:45.377Z,14.62
2018-12-17T08:31:48.870Z,14.07
2018-12-17T08:36:52.294Z,13.37
2018-12-17T08:41:55.638Z,13.15
2018-12-17T08:46:58.962Z,12.90
2018-12-17T08:52:02.286Z,14.47
2018-12-17T08:57:05.900Z,16.60
2018-12-17T09:02:09.394Z,17.90
2018-12-17T09:07:12.847Z,18.62
2018-12-17T09:12:16.278Z,18.97
2018-12-17T09:17:19.702Z,19.24
2018-12-17T09:22:23.109Z,19.53
2018-12-17T09:27:26.449Z,19.70
2018-12-17T09:32:29.862Z,19.72
2018-12-17T09:37:33.350Z,19.68
2018-12-17T09:42:36.880Z,19.60
2018-12-17T09:47:40.236Z,19.56
2018-12-17T09:52:43.570Z,19.52
2018-12-17T09:57:46.932Z,19.52
2018-12-17T10:02:50.268Z,19.63
2018-12-17T10:07:53.595Z,19.80
2018-12-17T10:12:56.924Z,19.96
2018-12-17T10:18:00.263Z,20.03
2018-12-17T10:23:03.681Z,20.06
2018-12-17T10:28:07.122Z,19.99
2018-12-17T10:33:10.515Z,19.95
2018-12-17T10:38:13.893Z,19.98
2018-12-17T10:43:17.420Z,19.98
2018-12-17T10:48:20.870Z,19.99
2018-12-17T10:53:24.258Z,19.98
2018-12-17T10:58:27.650Z,19.97
2018-12-17T11:08:51.768Z,19.95
2018-12-17T11:13:55.110Z,19.91
2018-12-17T11:18:58.589Z,19.89
2018-12-17T11:24:02.034Z,19.81
2018-12-17T11:29:05.564Z,19.77
2018-12-17T11:34:15.698Z,19.76
2018-12-17T11:39:19.057Z,19.73
2018-12-17T11:44:22.418Z,19.72
2018-12-17T11:49:25.871Z,19.72
2018-12-17T11:54:29.239Z,19.71
2018-12-17T11:59:32.613Z,19.83
2018-12-17T12:04:36.055Z,20.02
2018-12-17T12:09:39.529Z,20.22
2018-12-17T12:14:43.068Z,20.31
2018-12-17T12:19:46.658Z,20.39
2018-12-17T12:24:50.518Z,20.40
2018-12-17T12:29:54.225Z,20.29
2018-12-17T12:34:57.851Z,20.23
2018-12-17T12:40:02.222Z,20.17
2018-12-17T12:45:07.174Z,20.12
2018-12-17T12:50:10.699Z,20.11
2018-12-17T12:55:14.018Z,20.10
2018-12-17T13:00:17.446Z,20.08
2018-12-17T13:05:20.866Z,19.60
2018-12-17T13:10:24.190Z,16.37
2018-12-17T13:15:27.508Z,15.41
2018-12-17T13:20:31.001Z,14.78
2018-12-17T13:25:38.469Z,14.45
2018-12-17T13:30:41.862Z,14.16
2018-12-17T13:35:45.215Z,13.81
2018-12-17T13:40:48.641Z,15.30
2018-12-17T13:45:52.045Z,17.25
2018-12-17T13:50:57.457Z,18.32
2018-12-17T13:56:00.905Z,18.81
2018-12-17T14:01:04.406Z,19.16
2018-12-17T14:06:07.777Z,19.37
2018-12-17T14:11:11.106Z,19.59
2018-12-17T14:16:14.878Z,18.90
2018-12-17T14:21:23.747Z,19.46
2018-12-17T14:26:27.068Z,19.53
2018-12-17T14:31:30.466Z,19.52
2018-12-17T14:36:33.870Z,19.50
2018-12-17T14:41:37.254Z,19.69
2018-12-17T14:46:45.810Z,19.55
2018-12-17T14:51:49.203Z,19.59
2018-12-17T14:56:52.524Z,19.79
2018-12-17T15:01:55.867Z,19.96
2018-12-17T15:06:59.353Z,20.01
2018-12-17T15:12:02.836Z,20.07
2018-12-17T15:17:06.241Z,20.14
2018-12-17T15:22:09.955Z,20.15
2018-12-17T15:27:13.557Z,20.16
2018-12-17T15:32:17.077Z,20.16
2018-12-17T15:37:20.504Z,20.25
2018-12-17T15:42:23.890Z,20.33
2018-12-17T15:47:28.064Z,20.39
2018-12-17T15:52:31.538Z,20.51
2018-12-17T15:57:34.955Z,20.59
2018-12-17T16:02:38.295Z,20.66
2018-12-17T16:07:41.660Z,20.71
2018-12-17T16:12:45.012Z,20.72
2018-12-17T16:17:48.470Z,20.73
2018-12-17T16:22:51.933Z,20.72
2018-12-17T16:27:55.394Z,20.71
2018-12-17T16:32:58.870Z,20.69
2018-12-17T16:38:02.398Z,20.68
2018-12-17T16:43:05.915Z,20.71
2018-12-17T16:48:09.298Z,20.74
2018-12-17T16:53:12.689Z,20.78
2018-12-17T16:58:16.127Z,20.80
2018-12-17T17:03:19.470Z,20.83
2018-12-17T17:08:22.846Z,20.91
2018-12-17T17:13:26.186Z,21.08
2018-12-17T17:18:29.571Z,21.02
2018-12-17T17:23:33.022Z,21.01
2018-12-17T17:28:36.435Z,21.03
2018-12-17T17:33:39.926Z,20.98
2018-12-17T17:38:43.504Z,20.97
2018-12-17T17:43:46.877Z,20.96
2018-12-17T17:48:50.197Z,20.95
2018-12-17T17:53:53.711Z,20.96
2018-12-17T17:58:57.382Z,20.97
2018-12-17T18:04:00.753Z,20.96
2018-12-17T18:09:07.180Z,20.98
2018-12-17T18:14:10.505Z,20.98
2018-12-17T18:19:13.862Z,20.98
2018-12-17T18:24:17.351Z,21.01
2018-12-17T18:29:20.745Z,21.02
2018-12-17T18:34:24.124Z,21.04
2018-12-17T18:39:27.640Z,21.05
2018-12-17T18:44:30.993Z,21.07
2018-12-17T18:49:34.420Z,21.07
2018-12-17T18:54:37.880Z,21.10
2018-12-17T18:59:41.434Z,21.12
2018-12-17T19:04:44.966Z,21.16
2018-12-17T19:09:48.338Z,21.14
2018-12-17T19:14:51.788Z,21.17
2018-12-17T19:19:55.150Z,21.14
2018-12-17T19:24:58.590Z,21.16
2018-12-17T19:30:02.198Z,21.12
2018-12-17T19:35:05.921Z,21.15
2018-12-17T19:40:09.709Z,21.15
2018-12-17T19:45:13.325Z,21.13
2018-12-17T19:50:16.662Z,21.16
2018-12-17T19:55:20.090Z,21.38
2018-12-17T20:00:23.545Z,21.17
2018-12-17T20:05:27.059Z,21.21
2018-12-17T20:10:30.498Z,21.22
2018-12-17T20:15:33.925Z,21.24
2018-12-17T20:20:37.398Z,21.20
2018-12-17T20:25:40.989Z,21.20
2018-12-17T20:30:44.343Z,21.22
2018-12-17T20:35:47.767Z,21.24
2018-12-17T20:40:51.129Z,21.21
2018-12-17T20:45:54.500Z,21.31
2018-12-17T20:50:57.855Z,21.29
2018-12-17T20:56:01.258Z,21.31
2018-12-17T21:01:04.816Z,21.33
2018-12-17T21:06:08.305Z,21.32
2018-12-17T21:11:11.825Z,21.31
2018-12-17T21:16:15.191Z,21.30
2018-12-17T21:21:18.555Z,21.32
2018-12-17T21:26:21.986Z,21.30
2018-12-17T21:31:25.335Z,21.31
2018-12-17T21:36:28.702Z,21.29
2018-12-17T21:41:32.055Z,21.33
2018-12-17T21:46:35.475Z,21.32
2018-12-17T21:51:38.859Z,21.29
2018-12-17T21:56:42.370Z,21.35
2018-12-17T22:01:45.969Z,21.33
2018-12-17T22:06:49.332Z,21.34
2018-12-17T22:11:52.823Z,21.35
2018-12-17T22:16:56.276Z,21.39
2018-12-17T22:21:59.677Z,21.32
2018-12-17T22:27:03.019Z,21.37
2018-12-17T22:32:06.390Z,21.38
2018-12-17T22:37:09.830Z,21.40
2018-12-17T22:42:13.277Z,21.38
2018-12-17T22:47:17.011Z,21.41
2018-12-17T22:52:20.378Z,21.43
2018-12-17T22:57:23.731Z,21.42
2018-12-17T23:02:27.142Z,21.41
2018-12-17T23:07:30.741Z,21.45
2018-12-17T23:12:45.410Z,21.44
2018-12-17T23:17:47.785Z,21.44
2018-12-17T23:22:51.273Z,21.40
2018-12-17T23:27:54.807Z,21.41
2018-12-17T23:32:59.361Z,21.41
2018-12-17T23:38:02.796Z,21.46
2018-12-17T23:43:06.121Z,21.44
2018-12-17T23:53:47.067Z,21.41
2018-12-17T23:58:50.541Z,21.38
